Date,TemperatureHighF,TemperatureAvgF,TemperatureLowF,DewpointHighF,DewpointAvgF,DewpointLowF,HumidityHigh,HumidityAvg,HumidityLow,PressureMaxIn,PressureMinIn,WindSpeedMaxMPH,WindSpeedAvgMPH,GustSpeedMaxMPH,PrecipitationSumIn
2013-1-1,55.2,52.8,46.5,54.2,51.0,43.0,97,93,77,30.10,29.93,15,1,15,1.49
2013-1-2,46.4,40.8,37.7,45.3,38.3,34.9,96,91,87,30.23,30.05,10,1,15,0.00
2013-1-3,44.9,36.7,28.5,34.9,31.2,27.2,95,82,51,30.40,30.20,10,1,10,0.00
2013-1-4,51.1,36.3,26.1,34.5,28.0,23.5,96,76,34,30.48,30.37,6,1,9,0.00
2013-1-5,49.7,38.5,28.9,40.9,33.5,27.6,96,85,46,30.45,30.29,3,0,3,0.11
2013-1-6,45.2,42.2,41.5,41.3,40.6,40.1,96,94,84,30.31,30.25,7,0,7,0.00
2013-1-7,55.7,42.4,27.1,39.0,32.9,25.9,96,73,41,30.38,30.28,7,0,7,0.01
2013-1-8,62.0,50.8,30.5,51.9,43.2,29.2,96,76,62,30.34,30.23,9,1,9,0.00
2013-1-9,62.8,58.5,53.4,60.5,55.2,49.9,95,89,81,30.35,30.26,7,1,7,0.13
2013-1-10,69.0,64.9,61.2,65.9,63.0,59.9,96,94,87,30.32,29.99,17,2,17,0.01
2013-1-11,66.9,64.7,62.4,65.8,63.0,61.2,98,94,85,30.13,30.05,9,0,9,0.28
2013-1-12,72.9,68.7,64.3,66.7,64.5,60.3,97,87,77,30.10,29.95,9,1,9,0.02
2013-1-13,72.1,62.5,48.0,66.5,60.4,46.6,96,93,81,30.10,29.90,10,2,10,1.60
2013-1-14,47.9,43.0,37.3,46.4,41.8,35.7,96,96,94,30.22,30.06,12,2,12,0.39
2013-1-15,49.1,46.1,43.1,48.3,45.1,0.0,97,96,97,30.04,29.95,7,0,7,0.08
2013-1-16,46.6,42.3,40.9,45.7,41.2,39.8,97,96,95,30.10,29.97,8,1,8,0.20
2013-1-17,41.1,37.5,33.0,40.3,36.2,32.0,97,95,90,30.39,29.91,17,2,17,0.39
2013-1-18,52.9,38.2,29.7,39.4,33.1,28.6,97,84,46,30.59,30.39,9,0,9,0.09
2013-1-19,58.2,40.5,26.4,40.0,32.2,25.3,97,77,38,30.45,30.25,6,0,7,0.01
2013-1-20,63.7,43.4,29.2,44.4,36.1,28.2,97,79,43,30.28,30.14,9,0,9,0.01
2013-1-21,54.2,39.4,30.7,44.7,31.2,23.6,97,76,41,30.26,30.13,13,1,13,0.00
2013-1-22,47.6,35.6,27.4,31.0,24.3,19.5,93,66,37,30.42,30.25,9,1,9,0.00
2013-1-23,54.8,42.7,28.3,41.5,34.1,26.5,94,74,44,30.42,30.23,7,0,7,0.00
2013-1-24,58.7,49.3,40.6,46.2,36.1,24.1,95,64,38,30.34,30.21,10,1,10,0.00
2013-1-25,67.0,54.9,45.0,57.1,42.2,24.0,95,64,40,30.28,30.08,15,1,15,0.13
2013-1-26,56.7,47.9,40.6,50.5,42.1,36.3,96,82,48,30.32,30.16,7,1,7,0.01
2013-1-27,49.7,47.9,45.9,44.3,40.8,37.2,92,77,64,30.34,30.27,5,0,5,0.00
2013-1-28,69.0,58.2,49.9,56.3,52.4,41.6,94,82,61,30.33,30.19,6,0,11,0.00
2013-1-29,73.0,64.6,52.7,66.1,61.1,50.6,96,89,78,30.19,29.79,11,1,11,0.05
2013-1-30,70.7,57.0,40.9,67.3,53.2,33.6,96,87,68,30.01,29.59,17,2,17,2.17
2013-1-31,52.7,40.8,33.2,35.1,30.1,25.4,95,68,37,30.23,30.01,12,2,12,0.01
2013-2-1,44.9,37.0,27.2,32.9,22.0,9.9,95,59,25,30.47,30.21,13,2,13,0.00
2013-2-2,56.0,38.5,24.5,44.9,29.9,20.0,96,75,38,30.40,30.14,9,0,9,0.05
2013-2-3,60.0,43.6,29.4,43.4,32.9,28.4,97,71,33,30.22,30.08,15,1,15,0.00
2013-2-4,53.6,41.9,30.6,40.0,34.3,28.9,95,77,46,30.15,29.99,6,0,6,0.00
2013-2-5,57.0,50.0,41.0,54.7,47.6,38.7,96,91,78,30.07,29.97,5,0,5,0.06
2013-2-6,69.7,54.8,47.6,50.3,45.6,36.2,97,75,33,30.20,30.05,7,0,7,0.00
2013-2-7,54.7,51.3,49.0,52.0,48.9,40.7,96,92,60,30.10,29.91,8,1,8,0.22
2013-2-8,54.6,48.6,34.6,51.6,45.7,32.4,96,90,72,30.26,29.93,12,1,12,0.09
2013-2-9,64.1,39.7,28.2,42.9,34.8,27.0,96,85,33,30.32,30.17,5,0,7,0.00
2013-2-10,58.2,53.9,48.7,57.2,48.5,38.3,97,83,61,30.18,29.94,13,1,13,1.83
2013-2-11,58.1,54.2,48.9,57.3,53.2,48.1,97,96,94,30.17,29.97,8,0,8,0.46
2013-2-12,49.0,46.4,44.3,48.2,44.5,39.6,97,93,73,30.16,29.77,10,1,10,0.53
2013-2-13,48.7,45.4,35.7,47.7,42.2,34.6,97,89,76,30.05,29.74,14,2,14,0.02
2013-2-14,58.2,42.5,31.6,43.0,36.7,30.6,97,83,49,30.15,30.05,6,0,8,0.01
2013-2-15,63.2,40.8,30.6,44.0,34.8,29.6,97,82,41,30.16,30.04,9,0,14,0.00
2013-2-16,46.6,39.5,30.0,35.5,23.3,14.1,72,54,29,30.26,30.07,14,2,21,0.00
2013-2-17,52.7,35.9,22.2,29.7,21.0,11.4,93,62,21,30.36,30.24,8,0,8,0.00
2013-2-18,63.3,47.6,28.3,41.9,34.1,26.8,95,64,38,30.32,29.96,17,2,17,0.00
2013-2-19,58.8,49.1,34.3,48.4,37.1,22.8,96,68,28,30.25,29.95,11,2,16,0.58
2013-2-20,46.1,37.0,27.0,30.1,24.5,14.5,95,65,29,30.30,30.15,9,1,9,0.00
2013-2-21,63.1,45.6,30.1,48.2,33.0,20.1,94,68,26,30.17,29.87,14,1,14,1.29
2013-2-22,55.4,52.1,49.7,52.5,50.6,48.0,96,95,89,30.08,29.91,10,1,14,0.57
2013-2-23,59.9,49.5,40.0,51.6,47.1,38.8,97,92,71,30.00,29.86,11,1,11,0.13
2013-2-24,66.5,49.0,34.0,46.1,39.7,33.0,97,75,34,30.08,29.91,8,0,8,0.00
2013-2-25,62.1,53.2,47.6,54.1,44.6,32.9,95,74,48,29.91,29.50,17,3,17,0.72
2013-2-26,51.9,48.1,44.4,50.8,41.3,34.3,96,78,64,29.86,29.47,18,3,18,0.21
2013-2-27,59.1,46.3,35.7,38.9,35.8,33.2,93,68,44,29.97,29.86,19,2,19,0.00
2013-2-28,48.8,42.6,37.0,35.3,32.3,29.5,83,68,50,30.04,29.94,16,3,16,0.00
2013-3-1,43.8,39.5,34.8,32.5,29.8,28.2,85,68,56,30.11,30.04,4,2,15,0.00
2013-3-2,39.8,36.3,33.3,31.6,28.4,25.7,84,73,60,30.17,30.06,13,2,13,0.00
2013-3-3,48.4,36.5,28.8,28.4,23.3,15.4,90,62,27,30.21,30.11,14,2,14,0.00
2013-3-4,65.7,47.1,26.7,47.9,32.3,24.9,94,62,30,30.19,29.94,12,1,12,0.00
2013-3-5,68.5,56.1,43.9,58.8,50.2,35.5,89,80,70,30.06,29.75,24,3,24,0.15
2013-3-6,45.6,37.9,32.8,30.3,27.4,23.0,86,66,52,30.29,30.07,5,2,21,0.00
2013-3-7,59.5,41.7,28.2,38.7,31.1,26.2,94,70,35,30.35,30.25,6,1,10,0.00
2013-3-8,68.5,47.2,29.0,41.7,31.0,20.1,96,63,16,30.37,30.22,9,0,9,0.00
2013-3-9,70.5,55.8,36.1,40.1,36.1,29.1,93,52,29,30.26,30.07,11,1,11,0.00
2013-3-10,75.5,61.8,55.3,52.6,42.8,34.8,62,50,39,30.09,29.91,11,2,16,0.00
2013-3-11,64.1,52.4,39.6,54.5,47.0,37.7,96,83,57,29.98,29.80,13,2,13,1.06
2013-3-12,61.2,45.6,33.3,40.7,34.3,29.9,93,69,33,30.19,29.98,15,1,15,0.00
2013-3-13,58.7,44.9,31.3,35.9,27.8,21.0,96,58,26,30.39,30.18,16,2,16,0.00
2013-3-14,61.4,44.2,29.4,36.7,25.2,16.4,88,53,19,30.45,30.27,10,1,10,0.00
2013-3-15,76.8,55.0,32.4,48.2,40.4,31.0,96,64,32,30.28,30.01,13,1,13,0.00
2013-3-16,77.6,56.5,43.6,51.2,45.7,41.4,93,70,30,30.05,29.90,14,1,15,0.00
2013-3-17,72.5,60.9,46.8,57.7,53.1,45.3,96,77,52,30.01,29.86,8,1,8,0.00
2013-3-18,75.8,61.8,53.0,65.4,57.7,51.6,96,87,65,29.90,29.75,18,1,24,0.20
2013-3-19,66.8,54.9,42.1,52.6,38.9,26.4,95,61,25,30.12,29.90,12,1,12,0.00
2013-3-20,62.5,51.1,41.8,41.9,30.1,21.3,87,48,25,30.17,29.99,15,2,15,0.00
2013-3-21,53.0,43.4,33.7,36.8,24.0,12.0,79,50,20,30.09,29.94,13,1,13,0.01
2013-3-22,50.4,41.6,39.9,44.0,36.8,33.5,91,83,75,30.05,29.95,7,1,13,0.11
2013-3-23,58.9,54.6,47.0,55.6,52.1,44.0,95,91,82,30.01,29.63,13,1,13,1.71
2013-3-24,63.0,52.8,42.4,56.7,47.1,30.1,96,82,54,29.86,29.55,26,3,26,0.37
2013-3-25,48.9,40.6,35.1,31.4,25.9,22.7,69,56,39,30.20,29.86,17,3,21,0.00
2013-3-26,43.7,38.0,30.8,28.7,26.4,24.7,80,63,51,30.37,30.19,16,2,16,0.00
2013-3-27,58.4,42.2,26.4,38.3,29.4,24.4,95,65,30,30.44,30.29,10,1,10,0.00
2013-3-28,67.2,45.2,30.9,39.1,32.3,28.2,96,69,27,30.38,30.27,9,1,9,0.00
2013-3-29,74.0,61.1,34.9,51.1,42.6,33.6,96,55,26,30.33,30.15,10,1,10,0.00
2013-3-30,70.5,59.4,46.1,59.1,53.0,44.5,96,81,51,30.18,30.00,7,0,7,0.23
2013-3-31,66.8,60.0,55.0,61.0,57.5,53.6,96,92,80,30.01,29.86,8,0,11,0.31
2013-4-1,75.5,62.7,52.0,58.7,51.5,41.5,97,72,32,30.07,29.88,10,1,10,0.01
2013-4-2,71.7,57.1,44.5,49.1,42.4,31.4,95,62,38,30.18,30.06,8,1,9,0.00
2013-4-3,55.1,49.2,43.7,47.3,39.2,31.3,95,71,44,30.15,30.06,10,1,10,0.61
2013-4-4,49.9,48.8,46.1,48.6,47.3,44.8,96,95,92,30.07,29.93,7,1,8,0.32
2013-4-5,67.3,52.7,43.6,49.8,44.4,38.3,95,77,40,30.12,29.96,12,1,14,0.02
2013-4-6,77.4,57.1,37.3,51.7,42.3,36.3,97,66,25,30.17,30.04,13,0,13,0.00
2013-4-7,78.3,60.7,43.2,55.8,49.9,41.9,97,72,39,30.16,30.01,10,1,10,0.00
2013-4-8,81.2,67.6,53.0,63.4,57.8,50.7,95,73,47,30.08,29.98,10,0,10,0.00
2013-4-9,85.0,71.8,56.9,63.7,60.2,54.9,95,69,45,30.13,29.99,11,1,11,0.00
2013-4-10,85.6,70.7,56.1,64.3,59.0,54.4,95,69,39,30.04,29.85,9,0,14,0.00
2013-4-11,79.1,67.1,58.4,69.1,62.3,56.3,96,85,69,29.88,29.58,17,1,17,1.16
2013-4-12,70.5,56.5,45.3,56.3,47.1,41.3,95,75,36,30.00,29.71,9,1,9,0.02
2013-4-13,79.3,59.6,43.0,54.7,46.3,40.5,97,68,27,30.09,29.96,10,0,10,0.00
2013-4-14,59.6,54.7,47.6,55.8,52.0,46.1,96,91,72,30.05,29.80,15,0,15,0.52
2013-4-15,76.1,65.3,56.4,64.4,60.3,54.4,96,84,66,30.05,29.88,9,0,9,0.00
2013-4-16,85.3,73.5,65.5,71.0,66.7,61.2,93,80,58,30.15,30.05,8,1,8,0.00
2013-4-17,82.2,70.9,64.4,70.6,66.3,62.9,96,86,67,30.16,30.10,9,0,9,0.00
2013-4-18,82.0,74.1,64.7,67.2,64.7,61.0,88,74,56,30.01,29.74,10,1,14,0.00
2013-4-19,73.1,53.2,43.3,67.9,47.6,39.0,95,82,59,30.16,29.71,14,1,14,0.98
2013-4-20,66.5,50.4,35.1,44.4,37.8,32.0,96,68,31,30.28,30.15,11,1,11,0.00
2013-4-21,73.5,55.4,38.0,51.5,42.5,36.7,96,68,29,30.31,30.17,9,1,9,0.00
2013-4-22,72.4,55.4,44.8,56.3,47.9,43.3,96,78,52,30.24,30.14,10,1,10,0.00
2013-4-23,78.5,64.6,53.0,58.8,53.3,46.1,94,69,47,30.17,30.03,2,0,10,0.00
2013-4-24,68.5,60.0,52.0,65.5,56.8,47.0,93,89,83,30.22,30.02,3,1,12,0.00
2013-4-25,70.0,55.0,44.2,47.5,42.4,35.7,93,67,29,30.35,30.21,2,1,11,0.00
2013-4-26,80.5,63.7,39.0,55.5,47.2,34.6,96,63,20,30.36,30.18,4,0,9,0.00
2013-4-27,81.3,67.1,52.6,65.2,57.3,48.5,93,73,43,30.24,30.00,10,0,10,0.00
2013-4-28,70.4,65.0,59.6,67.7,62.9,58.5,97,93,78,30.05,29.93,6,0,6,0.88
2013-4-29,78.3,66.0,55.2,61.6,58.0,52.6,97,79,43,30.03,29.91,7,0,7,0.00
2013-4-30,83.3,66.8,49.0,64.8,57.4,47.9,97,75,44,30.01,29.92,8,0,8,0.00
2013-5-1,73.2,67.6,61.8,63.2,60.6,56.7,94,79,66,30.08,29.97,14,2,14,0.00
2013-5-2,68.6,65.3,62.9,62.5,59.2,55.8,89,81,74,30.09,30.02,13,2,13,0.00
2013-5-3,73.7,64.3,45.4,62.8,58.4,43.7,95,82,62,30.02,29.83,12,2,12,1.11
2013-5-4,62.7,50.3,42.7,51.1,45.3,41.4,96,84,56,29.98,29.88,10,1,10,0.81
2013-5-5,57.3,49.1,40.4,51.7,45.7,39.3,97,88,72,29.92,29.83,11,0,11,0.02
2013-5-6,62.7,52.5,45.5,56.0,49.7,43.8,96,90,76,29.93,29.84,10,0,10,0.16
2013-5-7,72.9,59.6,49.1,57.4,52.5,48.0,97,80,49,30.03,29.90,9,0,9,0.01
2013-5-8,70.2,52.0,46.9,61.2,49.9,45.8,97,93,71,30.09,30.00,2,0,2,0.00
2013-5-9,85.5,67.2,52.0,64.8,58.1,50.9,96,77,45,30.12,30.02,1,0,7,0.00
2013-5-10,73.9,65.9,59.5,63.7,61.5,58.1,96,86,63,30.08,29.92,5,0,8,0.01
2013-5-11,79.7,65.3,56.9,67.8,62.1,55.8,97,90,63,30.02,29.91,11,0,11,0.33
2013-5-12,72.3,59.5,46.8,57.4,48.2,39.6,97,71,32,30.16,30.00,12,1,12,0.01
2013-5-13,74.9,57.9,39.9,53.5,44.6,36.3,97,68,32,30.29,30.15,11,0,11,0.00
2013-5-14,84.6,67.1,46.5,61.9,56.2,45.2,96,72,39,30.25,30.10,5,0,8,0.00
2013-5-15,87.6,69.8,51.9,65.2,58.2,50.6,96,71,37,30.20,30.02,6,0,6,0.00
2013-5-16,84.3,70.3,60.4,66.5,62.8,55.8,96,79,44,30.07,29.96,3,0,7,0.00
2013-5-17,80.9,71.4,66.4,70.8,67.2,63.5,96,87,66,30.05,29.92,7,0,7,0.19
2013-5-18,85.5,74.9,68.4,73.2,70.1,67.2,97,86,64,30.04,29.94,6,0,6,0.08
2013-5-19,81.7,74.1,68.2,74.3,70.2,64.5,97,88,73,30.05,29.96,7,0,7,0.00
2013-5-20,87.6,74.6,61.8,73.4,68.1,60.7,97,82,58,30.07,29.95,6,0,6,0.00
2013-5-21,91.8,76.9,63.1,72.8,67.6,61.9,97,76,46,30.01,29.83,9,0,9,0.00
2013-5-22,84.8,75.2,67.0,71.8,67.9,64.8,95,79,61,29.93,29.85,8,0,8,0.00
2013-5-23,88.1,74.5,62.7,70.3,63.8,60.4,97,73,41,30.03,29.91,11,0,11,0.00
2013-5-24,78.6,68.0,54.5,62.9,56.7,49.1,93,70,37,30.22,30.03,13,1,13,0.00
2013-5-25,83.5,65.8,47.7,63.9,52.8,46.3,96,69,30,30.30,30.17,8,0,8,0.00
2013-5-26,90.0,70.4,52.0,65.0,57.3,50.6,97,69,31,30.24,30.11,5,0,5,0.00
2013-5-27,88.2,71.5,56.6,68.4,61.9,55.2,96,76,41,30.19,30.05,6,0,6,0.00
2013-5-28,90.0,71.4,57.3,69.3,62.8,56.2,97,77,45,30.13,30.02,6,0,8,0.00
2013-5-29,87.8,77.1,62.9,72.0,67.2,60.6,93,72,54,30.13,30.01,9,1,9,0.00
2013-5-30,88.0,78.7,70.6,72.4,68.5,64.7,87,72,52,30.12,30.00,5,1,11,0.00
2013-5-31,88.2,79.3,72.9,72.2,69.4,66.8,89,72,56,30.10,29.97,9,0,9,0.00
2013-6-1,87.5,76.2,67.8,77.0,71.5,66.0,96,86,65,30.02,29.91,7,0,7,0.11
2013-6-2,86.2,76.3,69.7,71.6,69.3,66.1,97,81,54,29.96,29.86,7,0,7,0.00
2013-6-3,87.3,75.9,67.2,72.1,68.4,65.5,97,79,50,29.95,29.85,10,0,10,0.00
2013-6-4,90.4,76.7,63.1,74.0,68.1,61.8,96,77,51,29.99,29.90,8,0,8,0.00
2013-6-5,91.7,75.5,67.5,76.0,70.1,65.8,96,85,57,29.96,29.80,14,0,14,1.09
2013-6-6,85.0,75.9,67.7,74.3,70.0,66.5,97,83,63,29.87,29.71,4,0,4,0.00
2013-6-7,76.0,70.5,67.8,71.7,68.5,66.6,96,93,83,29.89,29.71,5,0,5,1.13
2013-6-8,86.5,74.4,65.5,73.3,68.7,64.4,97,84,54,30.02,29.87,4,0,4,0.00
2013-6-9,86.5,73.9,69.9,75.7,70.2,68.5,96,89,60,30.03,29.91,6,0,10,0.85
2013-6-10,89.7,77.9,68.6,75.1,71.6,67.2,97,83,53,30.00,29.92,8,0,8,0.77
2013-6-11,94.2,81.7,72.4,77.2,74.4,71.0,96,80,54,30.06,29.96,7,0,7,0.00
2013-6-12,95.3,81.8,69.1,78.2,73.6,67.9,97,79,51,30.07,29.96,6,0,6,0.00
2013-6-13,93.5,80.4,69.2,80.6,74.1,68.0,97,83,58,29.98,29.77,12,1,12,0.36
2013-6-14,86.9,75.8,65.6,73.1,66.5,61.4,97,76,46,29.99,29.85,9,1,9,0.00
2013-6-15,91.5,75.5,60.5,73.0,66.7,59.4,97,77,46,30.06,29.97,7,0,7,0.00
2013-6-16,93.5,78.8,66.4,78.0,72.1,64.6,95,81,55,30.08,29.95,5,0,5,0.00
2013-6-17,92.0,77.9,70.3,78.4,72.9,67.7,96,85,57,29.99,29.91,9,0,9,0.14
2013-6-18,85.7,75.8,70.3,76.7,72.2,67.5,96,89,70,29.93,29.86,9,0,9,0.32
2013-6-19,89.0,76.8,69.3,73.7,70.5,67.2,97,83,50,30.03,29.91,7,0,7,0.00
2013-6-20,88.0,76.3,65.4,72.9,68.9,64.2,97,80,54,30.14,30.03,8,0,8,0.00
2013-6-21,89.0,76.5,65.6,72.7,68.7,64.4,97,79,50,30.19,30.08,8,0,8,0.00
2013-6-22,89.5,76.5,64.4,71.9,67.3,63.2,97,76,45,30.17,30.03,5,0,5,0.00
2013-6-23,89.4,76.4,64.5,73.6,69.7,63.3,97,81,54,30.15,30.04,6,0,7,0.00
2013-6-24,84.9,76.3,71.0,76.1,72.6,69.6,97,89,74,30.17,30.06,5,0,6,0.00
2013-6-25,92.3,79.3,68.4,76.9,72.6,67.2,97,82,51,30.13,29.99,5,0,5,0.00
2013-6-26,93.6,80.8,69.1,77.3,72.9,67.9,97,79,53,30.06,29.91,7,0,7,0.00
2013-6-27,95.0,81.9,71.3,81.2,75.4,69.8,97,82,59,29.98,29.81,13,0,13,0.11
2013-6-28,89.5,79.2,72.2,79.6,75.0,71.0,97,88,65,29.86,29.68,12,0,12,0.21
2013-6-29,90.8,78.2,69.2,76.6,70.3,61.8,97,80,39,29.74,29.65,11,0,11,0.00
2013-6-30,85.0,68.5,63.0,71.3,65.4,61.8,97,91,57,29.75,29.69,0,0,0,0.00
2013-7-1,88.5,76.0,65.9,70.5,67.6,64.7,97,77,48,29.89,29.74,5,0,6,0.00
2013-7-2,89.3,75.2,63.1,70.7,66.9,61.9,97,78,47,30.02,29.88,10,0,10,0.00
2013-7-3,82.5,73.2,68.0,74.3,70.2,66.2,97,91,72,30.07,30.00,10,0,10,0.22
2013-7-4,78.0,73.2,71.0,74.2,71.0,69.2,97,93,81,30.05,29.97,13,0,13,0.53
2013-7-5,77.2,73.7,70.7,73.3,71.3,69.5,97,92,86,30.10,30.02,3,0,7,0.02
2013-7-6,75.8,72.6,69.8,74.2,71.4,68.7,97,96,92,30.10,30.03,3,0,3,0.30
2013-7-7,84.5,75.3,71.4,75.3,72.5,70.5,98,91,70,30.13,30.06,5,0,7,0.10
2013-7-8,87.8,75.5,71.2,79.3,73.3,70.0,97,93,72,30.17,30.08,5,0,5,0.71
2013-7-9,93.0,79.7,71.7,78.9,74.5,70.8,98,85,54,30.16,30.04,5,0,5,0.00
2013-7-10,93.5,78.7,70.4,80.1,73.4,68.6,97,85,58,30.08,29.92,18,0,18,0.92
2013-7-11,87.2,77.1,70.4,77.0,73.0,69.5,98,88,68,29.99,29.86,5,0,5,0.16
2013-7-12,90.5,79.1,70.2,77.1,72.7,68.8,98,82,53,29.93,29.85,9,0,9,0.00
2013-7-13,85.6,75.5,66.0,75.8,70.3,64.8,97,85,68,29.97,29.89,7,0,7,0.00
2013-7-14,86.1,76.5,70.1,74.5,71.8,68.7,97,86,65,30.11,29.97,2,1,14,0.48
2013-7-15,88.1,78.2,72.8,75.1,72.8,71.0,97,85,58,30.20,30.08,8,1,8,0.17
2013-7-16,90.0,79.2,71.4,75.9,73.0,70.5,97,83,60,30.26,30.18,7,0,7,0.01
2013-7-17,95.9,81.3,69.2,79.1,73.5,68.1,97,80,48,30.27,30.11,7,0,7,0.00
2013-7-18,90.0,79.0,69.4,75.8,72.2,68.2,97,81,58,30.20,30.03,11,0,11,1.42
2013-7-19,93.9,78.8,69.4,76.8,72.7,68.2,97,84,49,30.09,29.94,3,0,4,0.00
2013-7-20,91.2,79.7,71.7,77.5,73.8,70.5,97,83,61,30.02,29.90,5,0,5,0.00
2013-7-21,91.2,79.0,69.5,79.2,73.3,67.9,97,84,61,30.02,29.90,12,0,12,0.29
2013-7-22,83.1,74.7,69.4,76.4,72.1,68.2,97,92,77,30.00,29.88,4,0,12,0.15
2013-7-23,85.1,73.1,69.5,78.4,71.4,68.6,98,95,79,30.00,29.87,10,0,10,1.21
2013-7-24,86.4,74.9,68.9,78.4,72.4,68.0,98,92,73,29.91,29.82,7,0,7,0.01
2013-7-25,88.3,73.5,68.4,74.5,70.2,66.9,97,90,52,30.00,29.86,5,0,8,0.01
2013-7-26,90.7,76.6,63.5,74.0,69.1,62.3,98,80,50,30.04,29.95,6,0,6,0.00
2013-7-27,88.0,75.6,67.7,74.7,70.7,66.5,97,86,56,29.98,29.88,4,0,4,0.04
2013-7-28,90.0,78.2,69.8,77.0,72.5,68.6,97,84,59,30.03,29.91,5,0,5,0.00
2013-7-29,90.2,77.2,67.1,73.5,69.0,64.8,97,79,45,30.14,30.02,6,0,6,0.00
2013-7-30,94.7,79.0,63.7,79.2,71.1,62.5,97,79,51,30.18,30.05,4,0,4,0.01
2013-7-31,89.0,79.6,74.9,78.7,75.0,71.9,96,87,64,30.08,29.94,5,0,5,0.01
2013-8-1,89.6,77.9,70.6,77.2,72.7,69.5,97,85,59,29.99,29.92,8,0,10,1.10
2013-8-2,92.0,78.4,66.9,75.3,70.7,65.7,97,80,50,30.02,29.94,6,0,6,0.16
2013-8-3,90.5,77.0,66.1,79.6,72.6,64.9,98,87,66,30.06,29.98,5,0,5,0.02
2013-8-4,90.3,79.5,72.8,77.6,74.2,71.3,98,85,61,30.05,29.97,7,0,7,0.13
2013-8-5,89.8,78.5,70.2,77.9,72.4,68.9,97,83,55,30.04,29.95,7,0,7,0.00
2013-8-6,91.7,74.6,71.7,80.7,72.7,70.5,97,94,66,29.99,29.92,3,0,13,0.27
2013-8-7,93.8,79.7,71.5,80.5,74.6,70.6,98,86,58,30.00,29.90,8,0,8,0.04
2013-8-8,92.2,80.1,71.4,81.1,75.3,70.2,97,86,64,30.00,29.91,5,0,5,0.00
2013-8-9,92.7,79.4,72.0,79.0,74.8,70.8,97,87,60,30.05,29.96,6,0,6,0.15
2013-8-10,93.3,80.9,72.1,78.6,75.4,71.1,98,85,57,30.11,30.03,11,0,11,0.00
2013-8-11,94.6,80.2,70.8,78.1,74.3,69.6,98,84,57,30.14,30.04,7,0,7,0.00
2013-8-12,92.8,79.4,71.6,78.3,74.2,70.5,97,85,59,30.11,29.97,10,0,10,0.16
2013-8-13,89.3,77.1,71.4,79.3,73.4,70.2,97,89,65,30.02,29.88,6,0,6,0.20
2013-8-14,82.8,74.4,68.2,74.0,71.6,65.8,98,92,68,29.98,29.91,7,0,7,0.34
2013-8-15,82.9,71.7,63.6,74.3,67.6,62.5,97,87,70,30.02,29.94,8,1,8,0.00
2013-8-16,73.8,69.9,67.2,69.4,66.3,64.2,93,88,81,30.06,29.98,7,0,7,0.00
2013-8-17,75.3,69.7,66.7,68.7,66.2,64.7,95,89,78,30.08,30.01,7,0,7,0.00
2013-8-18,74.0,70.2,66.9,71.5,68.6,65.5,97,95,90,30.13,30.03,6,0,6,0.44
2013-8-19,89.2,76.2,70.0,76.8,72.4,69.0,98,89,64,30.08,29.98,5,0,5,0.05
2013-8-20,89.0,77.3,69.0,77.8,73.1,68.1,98,88,66,30.11,30.01,8,0,8,0.00
2013-8-21,90.5,78.7,70.8,77.7,73.2,69.6,97,85,56,30.17,30.05,5,0,5,0.01
2013-8-22,93.1,78.2,70.6,78.3,72.7,69.3,98,85,56,30.14,30.00,8,0,8,0.40
2013-8-23,92.8,76.4,67.7,77.6,71.9,66.8,98,88,52,30.07,29.97,5,0,5,0.21
2013-8-24,88.1,75.6,68.7,79.8,72.6,67.8,98,91,70,30.17,30.02,9,0,9,0.11
2013-8-25,86.8,77.1,68.7,73.7,70.4,67.2,95,81,60,30.27,30.17,9,1,9,0.00
2013-8-26,84.5,72.6,61.9,69.8,65.2,60.6,98,80,48,30.27,30.14,9,0,9,0.00
2013-8-27,88.8,72.6,59.5,73.0,65.5,58.6,98,81,45,30.16,30.04,6,0,6,0.01
2013-8-28,90.8,75.9,63.7,76.3,69.5,62.8,98,82,53,30.08,29.99,5,0,5,0.00
2013-8-29,92.7,78.5,66.2,76.8,71.6,65.1,98,82,52,30.06,29.95,7,0,7,0.00
2013-8-30,96.1,76.8,68.9,78.7,72.6,67.7,98,88,53,30.00,29.89,6,0,7,0.00
2013-8-31,96.7,81.6,71.6,79.2,74.2,70.4,97,81,49,29.94,29.83,2,0,5,0.00
2013-9-1,95.1,80.1,69.5,79.6,74.1,68.3,98,83,55,29.92,29.83,7,0,7,0.00
2013-9-2,88.7,76.2,71.6,78.7,72.9,68.0,97,90,68,30.01,29.84,12,0,12,0.02
2013-9-3,91.8,78.6,69.6,77.6,72.8,68.5,98,84,57,29.97,29.87,6,0,6,0.01
2013-9-4,92.2,76.5,64.7,73.7,67.1,60.4,98,77,37,30.08,29.96,6,0,6,0.00
2013-9-5,69.5,66.2,61.9,68.6,65.2,60.8,98,96,95,30.12,30.06,0,0,0,0.00
2013-9-6,89.4,76.2,61.8,74.8,70.4,60.7,98,84,53,30.12,30.01,2,0,6,0.00
2013-9-7,91.5,76.7,65.9,74.2,69.3,64.8,98,81,47,30.09,29.97,5,0,5,0.01
2013-9-8,94.9,77.0,63.4,76.6,69.2,62.2,98,80,44,30.02,29.92,5,0,5,0.00
2013-9-9,92.3,76.8,66.8,77.1,71.6,65.6,98,86,52,30.06,29.97,8,0,8,0.06
2013-9-10,91.0,78.3,68.6,75.7,71.6,67.7,98,82,53,30.16,30.05,7,0,7,0.01
2013-9-11,90.9,76.7,66.0,73.4,68.9,64.8,98,80,46,30.18,30.07,4,0,7,0.00
2013-9-12,89.4,74.9,63.3,73.2,66.1,62.1,98,78,46,30.08,30.02,6,0,6,0.00
2013-9-13,87.4,73.9,63.5,73.0,64.7,58.3,97,75,46,29.92,29.83,9,0,10,0.00
2013-9-14,83.7,67.0,53.8,62.3,56.2,50.9,97,73,36,30.03,29.92,6,0,6,0.00
2013-9-15,90.8,69.8,52.4,66.2,59.3,51.3,98,75,34,30.10,30.03,6,0,6,0.00
2013-9-16,90.7,73.0,60.0,71.7,63.7,58.8,97,77,39,30.13,30.03,7,0,7,0.00
2013-9-17,90.2,74.5,58.7,73.6,65.9,57.6,98,77,47,30.14,30.02,9,0,9,0.00
2013-9-18,86.0,75.2,68.3,71.3,67.0,63.5,94,76,57,30.16,30.05,11,1,11,0.00
2013-9-19,90.2,72.0,64.4,69.6,65.6,62.6,94,82,45,30.14,30.02,6,0,7,0.00
2013-9-20,89.8,75.6,61.5,72.6,66.9,60.3,97,77,51,30.04,29.84,7,0,7,0.00
2013-9-21,74.3,70.8,63.4,73.1,69.0,62.2,97,94,87,29.84,29.74,9,0,9,0.00
2013-9-22,81.1,66.1,54.8,62.9,59.4,53.7,98,81,49,29.86,29.80,5,0,9,0.01
2013-9-23,86.1,70.3,55.2,69.2,62.4,54.1,98,79,50,29.94,29.85,8,0,8,0.00
2013-9-24,73.1,70.3,68.1,70.1,68.1,66.6,97,93,87,29.94,29.73,13,1,13,0.00
2013-9-25,83.2,71.9,66.8,73.1,68.5,65.5,97,90,68,29.84,29.75,5,0,5,0.00
2013-9-26,81.8,72.0,63.4,69.4,66.4,61.8,97,84,60,29.98,29.83,7,0,7,0.00
2013-9-27,83.3,68.6,58.0,68.1,60.6,55.7,98,79,42,30.11,29.98,8,0,8,0.00
2013-9-28,80.5,65.5,53.2,62.1,57.5,52.1,97,78,45,30.18,30.06,9,0,9,0.00
2013-9-29,77.6,64.9,52.2,65.9,58.9,51.1,97,83,53,30.12,29.99,6,0,7,0.00
2013-9-30,78.5,66.7,61.2,66.8,62.2,59.2,97,86,58,30.07,29.96,6,0,6,0.00
2013-10-1,77.5,63.3,59.3,68.2,61.3,58.2,98,93,73,30.12,30.01,5,0,6,0.00
2013-10-2,84.5,71.3,59.6,67.9,64.2,58.5,98,81,50,30.13,30.03,1,0,8,0.00
2013-10-3,81.1,71.7,62.5,70.3,66.9,61.5,97,86,63,30.10,30.02,2,0,7,0.00
2013-10-4,86.8,72.6,60.5,71.7,66.2,59.4,98,82,53,30.12,30.02,1,0,7,0.00
2013-10-5,88.5,75.2,63.6,71.3,67.2,62.4,97,79,53,30.07,29.94,2,0,7,0.00
2013-10-6,81.8,71.2,58.4,72.0,67.9,57.0,97,90,72,29.94,29.81,2,0,13,0.00
2013-10-7,73.6,60.8,52.8,56.6,53.8,50.8,97,80,48,30.02,29.90,2,1,11,0.00
2013-10-8,78.7,68.4,48.3,67.7,62.6,47.2,97,82,61,30.06,29.99,6,0,9,0.00
2013-10-9,76.4,68.0,62.3,66.7,61.5,56.4,95,80,64,30.16,30.06,8,1,8,0.00
2013-10-10,82.9,67.6,56.5,66.6,61.7,55.4,98,83,48,30.14,30.00,7,0,7,0.00
2013-10-11,84.5,66.8,53.5,66.2,59.7,52.4,98,81,45,30.08,29.98,7,0,7,0.00
2013-10-12,85.5,67.1,53.0,66.6,60.0,51.9,97,81,43,30.11,30.01,6,0,6,0.00
2013-10-13,84.2,68.5,57.2,65.4,60.9,56.1,97,80,48,30.19,30.09,9,0,9,0.00
2013-10-14,80.9,64.4,54.4,66.3,59.9,53.3,98,87,56,30.19,30.07,5,0,9,0.00
2013-10-15,76.3,65.4,55.4,64.5,60.6,54.2,98,86,64,30.11,29.99,7,0,7,0.00
2013-10-16,75.1,67.8,61.8,68.6,64.4,60.1,96,89,76,30.03,29.92,5,0,5,0.00
2013-10-17,71.2,66.7,60.0,68.0,64.5,58.2,98,93,84,29.98,29.90,8,0,8,0.00
2013-10-18,69.5,59.9,51.9,58.2,54.5,50.8,98,84,55,30.07,29.94,8,0,8,0.00
2013-10-19,71.0,60.1,51.4,60.7,56.4,49.0,97,88,65,30.03,29.93,6,0,6,0.00
2013-10-20,71.4,53.7,41.9,51.5,45.2,39.7,98,78,33,30.10,30.01,7,0,7,0.00
2013-10-21,69.9,53.9,38.5,56.6,47.7,37.4,98,82,45,30.12,30.00,3,0,3,0.00
2013-10-22,75.3,61.5,52.9,56.8,53.5,48.9,97,78,42,30.02,29.88,8,0,8,0.00
2013-10-23,65.1,54.2,41.5,52.5,44.9,38.9,94,73,41,30.13,29.92,8,1,13,0.00
2013-10-24,71.0,51.3,36.2,53.3,43.5,35.0,97,78,42,30.27,30.12,8,0,8,0.00
2013-10-25,57.9,45.5,34.5,45.2,34.2,27.1,93,68,32,30.46,30.27,10,1,10,0.00
2013-10-26,65.8,45.7,29.9,45.4,35.5,28.6,97,74,30,30.35,30.17,5,0,5,0.00
2013-10-27,74.7,56.7,41.9,57.5,49.7,40.4,96,80,45,30.17,30.09,5,0,5,0.02
2013-10-28,71.8,60.1,53.4,63.1,56.9,52.2,98,90,69,30.24,30.12,3,0,3,0.00
2013-10-29,80.5,62.5,51.0,63.7,56.6,50.2,98,84,48,30.30,30.19,7,0,7,0.00
2013-10-30,78.2,64.0,53.4,63.0,58.1,52.3,98,83,52,30.26,30.10,5,0,5,0.00
2013-10-31,75.5,67.5,58.8,68.9,64.0,57.4,96,89,77,30.10,29.75,10,0,10,0.00
2013-11-1,74.1,61.5,48.7,68.0,57.5,47.2,97,88,49,29.88,29.75,11,0,11,0.00
2013-11-2,68.3,54.4,43.6,52.2,44.2,38.3,98,73,34,30.15,29.87,14,1,14,0.00
2013-11-3,65.4,46.9,36.3,47.2,41.1,35.0,97,83,41,30.29,30.14,9,0,9,0.00
2013-11-4,68.5,57.0,36.4,50.4,44.1,35.4,97,65,39,30.38,30.26,11,1,11,0.00
2013-11-5,69.0,57.9,51.9,53.1,44.2,36.7,88,61,50,30.39,30.24,13,1,13,0.00
2013-11-6,72.4,64.2,52.1,62.8,57.6,44.8,91,79,64,30.24,30.06,9,0,9,0.00
2013-11-7,64.4,52.0,36.1,62.3,46.6,34.4,96,83,49,30.31,30.05,17,1,17,0.00
2013-11-8,61.2,44.8,32.2,43.9,36.4,31.0,97,77,37,30.39,30.25,10,0,10,0.00
2013-11-9,61.1,50.2,38.3,48.6,42.6,37.1,97,78,45,30.33,30.21,7,0,7,0.00
2013-11-10,71.2,56.3,45.1,51.4,47.0,39.8,95,75,36,30.32,30.22,7,0,7,0.00
2013-11-11,72.2,52.9,41.0,46.8,39.8,24.8,96,70,17,30.29,30.16,5,0,5,0.00
2013-11-12,57.3,42.8,32.8,46.5,32.9,18.1,97,70,44,30.53,30.18,16,2,16,0.00
2013-11-13,52.6,32.1,26.0,28.0,22.1,13.4,91,69,21,30.63,30.48,5,0,11,0.04
2013-11-14,59.5,37.1,21.8,30.7,22.9,19.8,96,65,24,30.49,30.30,8,0,8,0.10
2013-11-15,57.5,52.9,35.5,54.8,50.9,32.6,97,93,73,30.26,30.08,7,0,9,0.03
2013-11-16,66.5,60.3,54.2,62.2,58.1,53.1,97,93,85,30.16,30.04,7,0,7,0.01
2013-11-17,70.4,66.8,62.4,69.5,65.1,59.7,98,94,89,30.04,29.86,10,0,10,0.00
2013-11-18,71.0,60.7,48.8,70.0,47.7,34.1,98,66,30,30.13,29.91,13,1,13,0.01
2013-11-19,58.9,48.8,38.3,38.0,32.3,26.3,87,55,30,30.20,30.09,10,1,10,0.00
2013-11-20,64.5,54.0,30.9,46.2,41.9,29.6,96,65,47,30.25,30.12,8,1,14,0.08
2013-11-21,65.4,59.3,52.8,57.2,51.3,43.4,82,75,69,30.31,30.20,11,1,11,0.02
2013-11-22,65.9,61.4,56.7,61.2,57.9,53.3,96,88,81,30.28,30.16,7,0,7,0.00
2013-11-23,60.5,49.6,38.6,59.4,43.3,25.5,96,79,59,30.38,30.19,13,2,13,0.00
2013-11-24,46.6,35.4,28.0,25.4,19.7,11.5,74,55,26,30.55,30.36,13,1,13,0.04
2013-11-25,48.3,40.6,28.9,38.5,28.0,16.2,94,62,38,30.42,30.05,13,1,13,0.14
2013-11-26,46.8,42.1,38.0,46.0,40.8,36.3,97,95,91,30.06,29.74,16,2,16,0.01
2013-11-27,40.9,35.1,25.0,36.3,24.6,17.6,93,67,44,30.39,29.89,11,2,16,0.00
2013-11-28,47.2,30.5,19.4,29.5,20.8,15.4,93,72,29,30.51,30.38,6,0,6,1.63
2013-11-29,57.9,35.9,20.5,34.8,24.7,17.6,96,72,21,30.58,30.47,8,0,8,0.36
2013-11-30,60.0,39.0,23.9,36.3,28.3,22.4,97,72,27,30.52,30.30,5,0,9,0.03
2013-12-1,56.0,41.8,32.3,42.9,35.9,29.8,96,81,61,30.30,30.22,7,0,7,0.00
2013-12-2,56.0,53.1,47.9,54.5,51.8,42.8,97,95,61,30.22,29.78,3,0,3,0.31
2013-12-3,65.6,59.1,50.7,62.6,57.8,49.8,98,96,89,29.84,29.75,7,0,7,0.01
2013-12-4,74.0,67.7,63.6,67.1,64.7,62.4,96,91,78,29.96,29.83,9,0,9,0.00
2013-12-5,75.5,70.5,67.5,70.3,68.4,66.3,97,93,82,30.03,29.90,10,0,10,0.03
2013-12-6,75.3,58.7,38.9,69.8,56.6,37.3,98,93,82,30.22,29.91,9,1,12,0.27
2013-12-7,39.8,37.7,35.5,37.3,35.2,33.4,94,91,87,30.40,30.20,11,2,11,0.00
2013-12-8,56.5,48.2,39.8,55.9,47.1,36.8,98,96,88,30.26,30.05,6,0,6,0.15
2013-12-9,55.1,48.4,42.7,54.5,46.9,41.6,98,94,87,30.19,30.02,10,1,10,0.00
2013-12-10,43.9,37.1,27.9,42.0,34.0,26.7,97,89,65,30.39,30.03,18,2,18,0.00
2013-12-11,57.3,37.9,24.9,39.0,30.5,23.6,97,79,33,30.47,30.37,5,0,5,0.01
2013-12-12,46.0,33.0,28.2,30.5,25.1,14.1,95,75,28,30.57,30.40,10,1,12,0.00
2013-12-13,49.9,38.7,25.0,34.8,27.2,23.0,95,67,36,30.42,30.07,9,0,9,0.00
2013-12-14,58.2,51.4,42.6,55.6,47.9,33.3,97,88,57,30.09,29.82,14,1,14,0.13
2013-12-15,42.5,37.4,30.2,39.5,33.4,28.4,95,85,79,30.30,29.99,15,2,15,0.00
2013-12-16,57.9,38.6,26.6,37.0,31.3,25.4,97,79,34,30.34,30.22,10,0,10,0.01
2013-12-17,62.7,44.3,27.6,41.8,35.8,26.4,97,76,42,30.30,30.17,11,1,11,0.00
2013-12-18,57.4,40.6,28.0,38.0,30.5,25.7,97,73,30,30.40,30.27,6,0,6,0.00
2013-12-19,65.0,44.8,28.6,42.9,35.0,27.4,97,72,39,30.33,30.13,8,0,8,0.01
2013-12-20,68.8,59.2,44.0,59.8,50.7,38.2,92,74,59,30.16,30.00,7,0,10,0.00
2013-12-21,74.9,68.5,59.4,69.7,65.4,57.9,97,90,82,30.00,29.77,16,1,16,0.01
2013-12-22,72.0,57.6,53.9,68.9,56.0,53.1,97,94,77,30.10,29.77,18,0,18,0.40
2013-12-23,54.0,43.1,32.3,53.2,39.5,29.4,97,87,74,30.43,30.07,12,2,12,0.02
2013-12-24,40.4,30.6,25.7,29.4,25.8,22.0,92,83,50,30.54,30.41,8,0,12,0.00
2013-12-25,49.5,32.4,18.9,33.1,25.6,17.2,95,79,42,30.47,30.33,8,0,8,0.00
2013-12-26,55.1,37.5,26.0,35.3,29.1,24.8,96,76,37,30.41,30.31,9,0,9,0.00
2013-12-27,55.1,37.7,24.6,36.8,29.3,21.0,97,77,30,30.47,30.36,9,0,9,0.00
2013-12-28,43.6,41.0,34.4,41.9,39.2,32.4,97,93,88,30.38,29.93,10,0,10,0.58
2013-12-29,54.2,44.9,39.1,45.9,42.5,38.0,97,92,71,30.11,29.92,7,0,7,0.00
2013-12-30,47.6,39.9,36.0,43.3,37.9,34.9,98,93,84,30.30,30.10,8,0,8,0.00
2013-12-31,44.2,38.7,33.2,37.1,33.8,30.6,95,83,61,30.46,30.29,11,1,11,0.00
2014-1-1,52.2,41.4,30.1,44.3,37.3,28.8,97,86,67,30.35,30.07,7,0,7,0.00
2014-1-2,52.2,41.8,27.0,50.9,37.9,17.4,97,86,66,30.34,29.91,11,2,22,0.12